Impacts METAR Board
IDs:

KMEM - Memphis Intl, TN, US

Updated at: 2200 UTC 19 Jul 2018
Potential Impact None Slight Moderate High
Time 19/10Z 19/11Z 19/12Z 19/13Z 19/14Z 19/15Z 19/16Z 19/17Z 19/18Z 19/19Z 19/20Z 19/21Z 19/22Z
Temp75 75 76 78 80 83 86 88 90 91 91 92 90
Dewpt73 73 73 74 74 76 77 76 76 76 77 77 77
Altim29.92 29.93 29.94 29.95 29.96 29.94 29.93 29.92 29.92 29.90 29.89 29.86 29.85
VIS10 10 10 10 10 10 10 10 10 10 10 10 10
CIG-- -- -- -- -- -- -- -- -- -- 42 250 250
CoverFEWFEWSCTSCTSCTFEWFEWFEWSCTSCTBKNBKNBKN
FltCatVFRVFRVFRVFRVFRVFRVFRVFRVFRVFRVFRVFRVFR
WX--------------------------
WDir50100001402201800000210200
WSpd4 3 0 0 6 3 5 5 3 3 6 6 7
WGst-- -- -- -- -- -- -- -- -- -- -- -- --
Raw hourly METARs
KMEM 190954Z 05004KT 10SM FEW200 24/23 A2992 RMK AO2 SLP128 T02390228
KMEM 191054Z 10003KT 10SM FEW180 FEW250 24/23 A2993 RMK AO2 SLP130 T02390228
KMEM 191154Z 00000KT 10SM SCT160 24/23 A2994 RMK AO2 SLP134 70201 T02440228 10256 20239 53008
KMEM 191254Z 00000KT 10SM SCT180 26/23 A2995 RMK AO2 SLP139 T02560233
KMEM 191354Z 14006KT 10SM SCT180 27/23 A2996 RMK AO2 SLP140 T02670233
KMEM 191454Z 22003KT 10SM FEW180 28/24 A2994 RMK AO2 SLP134 T02830244 50000
KMEM 191554Z 18005KT 10SM FEW040 30/25 A2993 RMK AO2 SLP130 T03000250
KMEM 191654Z VRB05KT 10SM FEW028 31/24 A2992 RMK AO2 SLP128 T03110244
KMEM 191754Z VRB03KT 10SM FEW028 SCT090 SCT250 32/24 A2992 RMK AO2 SLP127 T03220244 10322 20244 56007
KMEM 191854Z VRB03KT 10SM SCT038 SCT250 33/24 A2990 RMK AO2 SLP119 T03280244
KMEM 191954Z VRB06KT 10SM BKN042 BKN250 33/25 A2989 RMK AO2 SLP115 T03280250
KMEM 192054Z 21006KT 10SM SCT042 BKN250 33/25 A2986 RMK AO2 SLP107 T03330250 58018
KMEM 192154Z 20007KT 10SM SCT042 BKN250 32/25 A2985 RMK AO2 SLP104 T03220250



Page loaded:  22:34 UTC  |   03:34 PM Pacific  |   04:34 PM Mountain  |   05:34 PM Central  |   06:34 PM Eastern

 

ADVISORIES

FORECASTS

FORECASTS

OBSERVATIONS

USER TOOLS

ABOUT US